createdAt,value
2023-04-12T00:01:29.619Z,81.97
2023-04-12T00:04:34.757Z,82.08
2023-04-12T00:07:42.858Z,82.04
2023-04-12T00:10:46.171Z,81.95
2023-04-12T00:13:48.969Z,82.02
2023-04-12T00:16:52.218Z,82.10
2023-04-12T00:19:55.086Z,82.26
2023-04-12T00:22:58.514Z,82.54
2023-04-12T00:26:01.339Z,82.81
2023-04-12T00:29:04.136Z,83.09
2023-04-12T00:32:07.096Z,83.08
2023-04-12T00:35:10.005Z,83.18
2023-04-12T00:38:13.125Z,83.27
2023-04-12T00:41:16.045Z,83.38
2023-04-12T00:44:19.185Z,83.47
2023-04-12T00:47:22.596Z,83.57
2023-04-12T00:50:25.612Z,83.67
2023-04-12T00:53:28.707Z,83.70
2023-04-12T00:56:32.429Z,83.58
2023-04-12T00:59:35.367Z,83.45
2023-04-12T01:02:39.673Z,83.37
2023-04-12T01:06:00.663Z,83.46
2023-04-12T01:09:12.756Z,83.47
2023-04-12T01:12:32.351Z,83.46
2023-04-12T01:15:40.169Z,83.34
2023-04-12T01:18:50.609Z,83.38
2023-04-12T01:22:13.782Z,83.41
2023-04-12T01:25:40.732Z,83.38
2023-04-12T01:28:45.691Z,83.40
2023-04-12T01:31:56.010Z,83.53
2023-04-12T01:35:03.069Z,83.67
2023-04-12T01:38:07.109Z,83.67
2023-04-12T01:41:10.307Z,83.43
2023-04-12T01:44:14.924Z,83.44
2023-04-12T01:47:17.981Z,83.13
2023-04-12T01:50:32.821Z,83.01
2023-04-12T01:54:03.202Z,83.07
2023-04-12T01:57:09.045Z,83.01
2023-04-12T02:00:14.024Z,82.97
2023-04-12T02:03:18.488Z,82.95
2023-04-12T02:06:23.271Z,82.58
2023-04-12T02:09:26.172Z,82.29
2023-04-12T02:12:29.043Z,82.36
2023-04-12T02:15:31.898Z,82.39
2023-04-12T02:18:37.876Z,82.38
2023-04-12T02:21:45.628Z,82.37
2023-04-12T02:24:48.424Z,82.31
2023-04-12T02:27:51.422Z,82.33
2023-04-12T02:30:54.370Z,82.04
2023-04-12T02:33:57.564Z,81.57
2023-04-12T02:37:00.637Z,81.53
2023-04-12T02:40:06.180Z,81.48
2023-04-12T02:43:09.851Z,81.28
2023-04-12T02:46:19.688Z,81.34
2023-04-12T02:49:23.008Z,81.23
2023-04-12T02:52:26.176Z,81.39
2023-04-12T02:55:30.708Z,81.20
2023-04-12T02:58:34.562Z,80.86
2023-04-12T03:01:39.423Z,80.77
2023-04-12T03:04:47.261Z,80.74
2023-04-12T03:07:50.162Z,80.91
2023-04-12T03:10:53.016Z,81.06
2023-04-12T03:13:56.115Z,81.03
2023-04-12T03:16:59.139Z,81.00
2023-04-12T03:20:10.112Z,80.83
2023-04-12T03:23:13.122Z,81.04
2023-04-12T03:26:16.012Z,81.14
2023-04-12T03:29:18.990Z,81.10
2023-04-12T03:32:21.918Z,81.09
2023-04-12T03:35:24.789Z,81.07
2023-04-12T03:38:27.613Z,81.10
2023-04-12T03:41:30.352Z,81.26
2023-04-12T03:44:33.156Z,81.37
2023-04-12T03:47:37.208Z,81.38
2023-04-12T03:50:44.730Z,81.35
2023-04-12T03:53:47.912Z,81.55
2023-04-12T03:56:50.721Z,81.45
2023-04-12T03:59:53.555Z,81.46
2023-04-12T04:02:58.772Z,81.32
2023-04-12T04:06:02.300Z,81.34
2023-04-12T04:09:05.756Z,81.29
2023-04-12T04:12:09.154Z,81.28
2023-04-12T04:15:12.010Z,81.05
2023-04-12T04:18:14.868Z,81.13
2023-04-12T04:21:17.790Z,81.27
2023-04-12T04:24:22.532Z,80.97
2023-04-12T04:27:25.374Z,80.87
2023-04-12T04:30:28.332Z,80.77
2023-04-12T04:33:31.172Z,80.78
2023-04-12T04:36:35.640Z,80.68
2023-04-12T04:39:38.710Z,80.52
2023-04-12T04:42:43.039Z,80.20
2023-04-12T04:45:49.369Z,79.84
2023-04-12T04:48:55.262Z,79.48
2023-04-12T04:51:58.259Z,79.21
2023-04-12T04:55:02.040Z,79.05
2023-04-12T04:58:06.589Z,78.92
2023-04-12T05:01:10.877Z,78.71
2023-04-12T05:04:13.775Z,78.52
2023-04-12T05:07:16.799Z,77.89
2023-04-12T05:10:19.593Z,77.66
2023-04-12T05:13:22.580Z,77.55
2023-04-12T05:16:25.767Z,77.78
2023-04-12T05:19:29.074Z,77.79
2023-04-12T05:22:32.766Z,77.90
2023-04-12T05:25:35.914Z,77.66
2023-04-12T05:28:38.981Z,77.89
2023-04-12T05:31:41.824Z,77.84
2023-04-12T05:34:44.651Z,78.04
2023-04-12T05:37:47.501Z,77.72
2023-04-12T05:40:51.015Z,77.78
2023-04-12T05:43:53.891Z,77.66
2023-04-12T05:46:56.921Z,76.75
2023-04-12T05:49:59.752Z,76.46
2023-04-12T05:53:02.987Z,76.07
2023-04-12T05:56:06.237Z,76.08
2023-04-12T05:59:11.068Z,75.97
2023-04-12T06:02:14.041Z,75.93
2023-04-12T06:05:19.779Z,76.26
2023-04-12T06:08:22.781Z,76.07
2023-04-12T06:11:25.786Z,75.75
2023-04-12T06:14:28.606Z,75.46
2023-04-12T06:17:31.429Z,75.77
2023-04-12T06:20:34.309Z,76.37
2023-04-12T06:23:37.250Z,75.76
2023-04-12T06:26:40.469Z,76.41
2023-04-12T06:29:43.295Z,75.30
2023-04-12T06:32:46.347Z,75.54
2023-04-12T06:35:49.813Z,75.42
2023-04-12T06:38:52.672Z,75.48
2023-04-12T06:41:57.709Z,75.52
2023-04-12T06:45:00.555Z,75.43
2023-04-12T06:48:03.464Z,75.14
2023-04-12T06:51:06.571Z,75.10
2023-04-12T06:54:09.394Z,75.25
2023-04-12T06:57:12.330Z,74.31
2023-04-12T07:00:15.604Z,74.41
2023-04-12T07:03:18.685Z,75.69
2023-04-12T07:06:25.653Z,75.15
2023-04-12T07:09:32.451Z,75.17
2023-04-12T07:12:35.204Z,74.60
2023-04-12T07:15:38.242Z,74.94
2023-04-12T07:18:41.161Z,74.86
2023-04-12T07:21:43.926Z,73.92
2023-04-12T07:24:46.828Z,73.41
2023-04-12T07:27:51.699Z,73.27
2023-04-12T07:30:54.842Z,73.44
2023-04-12T07:33:57.779Z,74.17
2023-04-12T07:37:01.165Z,73.84
2023-04-12T07:40:04.468Z,73.27
2023-04-12T07:43:07.376Z,72.44
2023-04-12T07:46:10.600Z,72.85
2023-04-12T07:49:13.597Z,71.66
2023-04-12T07:52:16.491Z,72.80
2023-04-12T07:55:19.389Z,72.44
2023-04-12T07:58:23.663Z,69.32
2023-04-12T08:01:26.556Z,68.88
2023-04-12T08:04:29.541Z,67.89
2023-04-12T08:07:32.373Z,64.82
2023-04-12T08:10:35.296Z,66.37
2023-04-12T08:13:38.095Z,66.54
2023-04-12T08:16:41.108Z,63.38
2023-04-12T08:19:44.035Z,64.92
2023-04-12T08:22:47.333Z,63.06
2023-04-12T08:25:50.276Z,64.57
2023-04-12T08:28:53.154Z,62.52
2023-04-12T08:31:56.629Z,62.17
2023-04-12T08:35:00.324Z,64.41
2023-04-12T08:38:08.078Z,61.32
2023-04-12T08:41:11.181Z,59.07
2023-04-12T08:44:15.592Z,50.85
2023-04-12T08:47:18.514Z,55.54
2023-04-12T08:50:21.931Z,52.37
2023-04-12T08:53:24.980Z,54.48
2023-04-12T08:56:30.075Z,56.22
2023-04-12T08:59:36.856Z,53.37
2023-04-12T09:02:39.886Z,55.88
2023-04-12T09:05:43.122Z,52.86
2023-04-12T09:08:57.285Z,54.75
2023-04-12T09:12:10.608Z,56.45
2023-04-12T09:15:15.796Z,55.67
2023-04-12T09:18:19.078Z,57.50
2023-04-12T09:21:21.952Z,56.19
2023-04-12T09:24:24.822Z,56.54
2023-04-12T09:27:29.740Z,55.67
2023-04-12T09:30:42.282Z,53.49
2023-04-12T09:33:46.246Z,51.50
2023-04-12T09:36:49.098Z,52.88
2023-04-12T09:40:05.691Z,53.18
2023-04-12T09:43:08.665Z,55.86
2023-04-12T09:46:13.885Z,55.41
2023-04-12T09:49:16.979Z,50.78
2023-04-12T09:52:19.996Z,53.74
2023-04-12T09:55:28.543Z,53.45
2023-04-12T09:58:34.137Z,52.69
2023-04-12T10:01:40.388Z,51.04
2023-04-12T10:04:44.420Z,52.50
2023-04-12T10:07:47.985Z,50.63
2023-04-12T10:10:53.821Z,45.22
2023-04-12T10:13:57.444Z,44.83
2023-04-12T10:17:03.627Z,49.70
2023-04-12T10:20:07.391Z,44.88
2023-04-12T10:23:10.965Z,44.87
2023-04-12T10:26:16.178Z,44.77
2023-04-12T10:29:33.867Z,45.82
2023-04-12T10:32:37.613Z,46.24
2023-04-12T10:35:54.990Z,46.74
2023-04-12T10:39:11.242Z,46.33
2023-04-12T10:42:25.433Z,44.23
2023-04-12T10:45:31.670Z,45.19
2023-04-12T10:48:39.763Z,46.24
2023-04-12T10:52:04.360Z,47.15
2023-04-12T10:55:41.399Z,47.14
2023-04-12T10:58:53.240Z,48.10
2023-04-12T11:02:09.569Z,46.20
2023-04-12T11:05:14.580Z,45.84
2023-04-12T11:08:19.182Z,46.33
2023-04-12T11:11:22.984Z,46.50
2023-04-12T11:14:30.571Z,48.22
2023-04-12T11:17:36.235Z,47.78
2023-04-12T11:20:41.150Z,47.16
2023-04-12T11:23:44.064Z,49.50
2023-04-12T11:26:47.138Z,50.58
2023-04-12T11:29:55.740Z,51.88
2023-04-12T11:32:58.949Z,51.83
2023-04-12T11:36:12.332Z,50.76
2023-04-12T11:39:15.318Z,51.85
2023-04-12T11:42:21.337Z,50.24
2023-04-12T11:45:24.138Z,51.38
2023-04-12T11:48:28.356Z,50.19
2023-04-12T11:51:32.668Z,49.64
2023-04-12T11:54:35.670Z,49.54
2023-04-12T11:57:39.273Z,48.11
2023-04-12T12:00:45.691Z,50.29
2023-04-12T12:03:50.033Z,51.20
2023-04-12T12:06:54.064Z,51.05
2023-04-12T12:09:58.060Z,51.84
2023-04-12T12:13:01.202Z,51.31
2023-04-12T12:16:08.348Z,50.04
2023-04-12T12:19:11.685Z,48.41
2023-04-12T12:22:17.537Z,48.46
2023-04-12T12:25:20.953Z,49.71
2023-04-12T12:28:24.620Z,49.54
2023-04-12T12:31:28.562Z,47.84
2023-04-12T12:34:34.425Z,47.45
2023-04-12T12:37:37.471Z,47.71
2023-04-12T12:40:40.751Z,48.76
2023-04-12T12:43:50.907Z,49.97
2023-04-12T12:46:58.677Z,49.36
2023-04-12T12:50:06.596Z,49.69
2023-04-12T12:53:10.761Z,48.82
2023-04-12T12:56:14.553Z,49.53
2023-04-12T12:59:17.850Z,48.03
2023-04-12T13:02:21.018Z,48.58
2023-04-12T13:05:24.210Z,48.72
2023-04-12T13:08:27.992Z,48.73
2023-04-12T13:11:31.043Z,48.63
2023-04-12T13:14:33.929Z,49.89
2023-04-12T13:17:36.987Z,50.14
2023-04-12T13:20:40.021Z,48.39
2023-04-12T13:23:42.999Z,47.35
2023-04-12T13:26:46.205Z,45.93
2023-04-12T13:29:49.002Z,46.07
2023-04-12T13:32:51.874Z,45.91
2023-04-12T13:35:54.942Z,46.94
2023-04-12T13:38:58.081Z,46.17
2023-04-12T13:42:02.295Z,45.74
2023-04-12T13:45:07.097Z,45.61
2023-04-12T13:48:10.334Z,45.52
2023-04-12T13:51:13.662Z,45.96
2023-04-12T13:54:17.542Z,45.98
2023-04-12T13:57:20.745Z,44.46
2023-04-12T14:00:23.839Z,46.22
2023-04-12T14:03:26.866Z,46.14
2023-04-12T14:06:30.302Z,46.37
2023-04-12T14:09:33.964Z,46.85
2023-04-12T14:12:36.821Z,45.75
2023-04-12T14:15:39.677Z,43.89
2023-04-12T14:18:42.697Z,44.21
2023-04-12T14:21:46.939Z,45.18
2023-04-12T14:24:50.136Z,46.19
2023-04-12T14:27:53.356Z,45.36
2023-04-12T14:31:00.900Z,45.84
2023-04-12T14:34:04.819Z,46.17
2023-04-12T14:37:08.664Z,45.74
2023-04-12T14:40:11.637Z,45.92
2023-04-12T14:43:14.472Z,46.02
2023-04-12T14:46:17.901Z,44.99
2023-04-12T14:49:20.876Z,43.81
2023-04-12T14:52:24.075Z,43.86
2023-04-12T14:55:27.178Z,44.88
2023-04-12T14:58:30.839Z,44.53
2023-04-12T15:01:34.653Z,45.13
2023-04-12T15:04:37.845Z,44.55
2023-04-12T15:07:43.173Z,44.62
2023-04-12T15:10:46.656Z,45.21
2023-04-12T15:13:49.936Z,45.00
2023-04-12T15:16:53.646Z,44.54
2023-04-12T15:19:58.092Z,44.98
2023-04-12T15:23:01.181Z,44.94
2023-04-12T15:26:06.653Z,44.62
2023-04-12T15:29:09.625Z,44.93
2023-04-12T15:32:12.517Z,44.77
2023-04-12T15:35:25.972Z,44.63
2023-04-12T15:38:31.162Z,44.63
2023-04-12T15:41:37.861Z,45.88
2023-04-12T15:44:42.255Z,45.81
2023-04-12T15:47:45.926Z,45.77
2023-04-12T15:50:49.776Z,46.34
2023-04-12T15:53:53.308Z,45.89
2023-04-12T15:56:56.122Z,45.27
2023-04-12T15:59:59.896Z,46.01
2023-04-12T16:03:02.866Z,47.01
2023-04-12T16:06:06.271Z,46.39
2023-04-12T16:09:09.372Z,46.08
2023-04-12T16:12:12.252Z,46.87
2023-04-12T16:15:19.516Z,46.34
2023-04-12T16:18:22.503Z,47.60
2023-04-12T16:21:27.270Z,47.54
2023-04-12T16:24:30.306Z,48.44
2023-04-12T16:27:33.311Z,48.24
2023-04-12T16:30:36.719Z,48.77
2023-04-12T16:33:39.563Z,48.83
2023-04-12T16:36:43.155Z,49.44
2023-04-12T16:39:46.692Z,49.76
2023-04-12T16:42:49.611Z,50.26
2023-04-12T16:45:52.543Z,51.06
2023-04-12T16:48:55.506Z,51.36
2023-04-12T16:51:59.468Z,51.66
2023-04-12T16:55:02.992Z,52.17
2023-04-12T16:58:05.722Z,52.61
2023-04-12T17:01:09.519Z,52.81
2023-04-12T17:04:13.259Z,53.29
2023-04-12T17:07:17.452Z,54.11
2023-04-12T17:10:21.866Z,54.35
2023-04-12T17:13:24.683Z,54.47
2023-04-12T17:16:27.854Z,55.32
2023-04-12T17:19:31.038Z,56.44
2023-04-12T17:22:34.144Z,57.02
2023-04-12T17:25:37.112Z,57.46
2023-04-12T17:28:40.471Z,58.00
2023-04-12T17:31:45.622Z,58.42
2023-04-12T17:34:54.905Z,58.40
2023-04-12T17:37:57.723Z,58.69
2023-04-12T17:41:00.934Z,58.96
2023-04-12T17:44:04.142Z,59.27
2023-04-12T17:47:07.490Z,59.33
2023-04-12T17:50:11.693Z,59.48
2023-04-12T17:53:14.693Z,59.52
2023-04-12T17:56:17.872Z,59.82
2023-04-12T17:59:21.167Z,60.21
2023-04-12T18:02:24.169Z,60.26
2023-04-12T18:05:27.833Z,60.72
2023-04-12T18:08:31.026Z,60.99
2023-04-12T18:11:36.230Z,61.32
2023-04-12T18:14:41.107Z,61.67
2023-04-12T18:17:44.812Z,62.21
2023-04-12T18:20:47.729Z,62.37
2023-04-12T18:23:53.618Z,62.77
2023-04-12T18:26:59.194Z,63.38
2023-04-12T18:30:03.501Z,63.82
2023-04-12T18:33:08.179Z,64.18
2023-04-12T18:36:11.365Z,64.10
2023-04-12T18:39:14.408Z,64.16
2023-04-12T18:42:17.264Z,64.43
2023-04-12T18:45:20.463Z,64.81
2023-04-12T18:48:23.335Z,65.32
2023-04-12T18:51:26.503Z,66.11
2023-04-12T18:54:30.322Z,66.41
2023-04-12T18:57:33.550Z,66.63
2023-04-12T19:00:36.868Z,67.01
2023-04-12T19:03:39.921Z,67.35
2023-04-12T19:06:44.326Z,67.57
2023-04-12T19:09:47.503Z,67.57
2023-04-12T19:12:50.500Z,68.46
2023-04-12T19:15:55.865Z,68.48
2023-04-12T19:19:00.342Z,67.83
2023-04-12T19:22:03.614Z,67.92
2023-04-12T19:25:07.272Z,67.99
2023-04-12T19:28:11.360Z,67.92
2023-04-12T19:31:14.976Z,68.43
2023-04-12T19:34:18.533Z,70.93
2023-04-12T19:37:21.568Z,72.20
2023-04-12T19:40:24.448Z,70.42
2023-04-12T19:43:27.588Z,71.44
2023-04-12T19:46:30.830Z,72.12
2023-04-12T19:49:38.192Z,73.67
2023-04-12T19:52:42.784Z,74.54
2023-04-12T19:55:45.786Z,74.00
2023-04-12T19:58:49.724Z,75.20
2023-04-12T20:01:52.677Z,75.22
2023-04-12T20:04:55.509Z,75.75
2023-04-12T20:08:01.221Z,75.38
2023-04-12T20:11:04.311Z,75.72
2023-04-12T20:14:08.369Z,76.02
2023-04-12T20:17:12.265Z,77.09
2023-04-12T20:20:15.468Z,76.08
2023-04-12T20:23:18.406Z,76.22
2023-04-12T20:26:21.368Z,77.04
2023-04-12T20:29:24.559Z,77.28
2023-04-12T20:32:27.541Z,75.84
2023-04-12T20:35:30.523Z,78.38
2023-04-12T20:38:34.694Z,77.40
2023-04-12T20:41:38.570Z,75.97
2023-04-12T20:44:41.652Z,76.68
2023-04-12T20:47:44.973Z,77.84
2023-04-12T20:50:50.207Z,78.26
2023-04-12T20:53:53.860Z,77.36
2023-04-12T20:56:58.886Z,77.49
2023-04-12T21:00:02.276Z,76.60
2023-04-12T21:03:05.245Z,76.70
2023-04-12T21:06:12.188Z,76.99
2023-04-12T21:09:15.165Z,76.84
2023-04-12T21:12:18.390Z,76.88
2023-04-12T21:15:22.114Z,76.27
2023-04-12T21:18:25.224Z,77.28
2023-04-12T21:21:28.607Z,77.35
2023-04-12T21:24:35.508Z,77.21
2023-04-12T21:27:38.507Z,77.34
2023-04-12T21:30:42.124Z,77.77
2023-04-12T21:33:44.961Z,78.01
2023-04-12T21:36:47.809Z,78.22
2023-04-12T21:39:50.736Z,78.66
2023-04-12T21:42:53.718Z,78.84
2023-04-12T21:45:56.717Z,78.15
2023-04-12T21:49:00.030Z,77.63
2023-04-12T21:52:03.290Z,77.75
2023-04-12T21:55:06.668Z,78.17
2023-04-12T21:58:09.561Z,76.40
2023-04-12T22:01:12.724Z,76.21
2023-04-12T22:04:15.982Z,77.13
2023-04-12T22:07:19.077Z,78.46
2023-04-12T22:10:21.934Z,79.27
2023-04-12T22:13:24.819Z,79.21
2023-04-12T22:16:28.153Z,78.90
2023-04-12T22:19:31.086Z,79.06
2023-04-12T22:22:34.739Z,79.26
2023-04-12T22:25:37.527Z,78.96
2023-04-12T22:28:42.315Z,78.95
2023-04-12T22:31:45.698Z,78.58
2023-04-12T22:34:58.092Z,78.94
2023-04-12T22:38:08.351Z,78.88
2023-04-12T22:41:15.808Z,78.22
2023-04-12T22:44:22.329Z,78.56
2023-04-12T22:47:26.609Z,78.40
2023-04-12T22:50:29.708Z,78.51
2023-04-12T22:53:33.437Z,77.55
2023-04-12T22:56:41.904Z,77.70
2023-04-12T22:59:44.693Z,76.89
2023-04-12T23:02:48.718Z,76.26
2023-04-12T23:05:52.446Z,76.10
2023-04-12T23:08:57.556Z,75.97
2023-04-12T23:12:00.765Z,75.77
2023-04-12T23:15:06.211Z,75.47
2023-04-12T23:18:09.215Z,75.20
2023-04-12T23:21:12.288Z,74.60
2023-04-12T23:24:18.497Z,74.64
2023-04-12T23:27:22.822Z,74.70
2023-04-12T23:30:29.673Z,74.35
2023-04-12T23:33:32.822Z,73.80
2023-04-12T23:36:36.231Z,73.59
2023-04-12T23:39:39.149Z,73.36
2023-04-12T23:42:43.834Z,73.14
2023-04-12T23:45:46.750Z,73.09
2023-04-12T23:48:49.683Z,73.34
2023-04-12T23:51:52.534Z,72.87
2023-04-12T23:54:55.556Z,72.04
2023-04-12T23:57:58.363Z,71.80
